Time;durP1;ratioP1;P1;durP2;ratioP2;P2;SDS_P1;SDS_P2;PMS_P1;PMS_P2;Temp;Humidity;BMP_temperature;BMP_pressure;BME280_temperature;BME280_humidity;BME280_pressure;Samples;Min_cycle;Max_cycle;Signal;HPM_P1;HPM_P2
2023/03/06 00:01:05;;;;;;;26.00;11.70;;;3.30;46.60;;;;;;5031229;28;46463;-61
2023/03/06 00:03:32;;;;;;;24.98;12.95;;;3.20;46.70;;;;;;5031280;28;46651;-61
2023/03/06 00:05:58;;;;;;;19.50;12.23;;;3.20;46.80;;;;;;5032946;28;46224;-62
2023/03/06 00:08:26;;;;;;;22.20;11.18;;;3.20;46.80;;;;;;5033386;28;46461;-61
2023/03/06 00:10:52;;;;;;;25.30;12.20;;;3.20;46.80;;;;;;5012926;28;46441;-62
2023/03/06 00:13:18;;;;;;;32.53;11.80;;;3.30;46.90;;;;;;5030977;28;46375;-62
2023/03/06 00:15:45;;;;;;;20.60;9.45;;;3.30;46.80;;;;;;5034864;28;46820;-62
2023/03/06 00:18:11;;;;;;;20.88;11.48;;;3.20;46.70;;;;;;5028936;28;46350;-62
2023/03/06 00:20:38;;;;;;;19.80;9.77;;;3.20;46.80;;;;;;5024988;28;46567;-61
2023/03/06 00:23:04;;;;;;;23.63;11.90;;;3.20;46.80;;;;;;5032854;28;46949;-62
2023/03/06 00:25:30;;;;;;;20.00;10.27;;;3.20;46.70;;;;;;5028940;28;46437;-62
2023/03/06 00:27:55;;;;;;;23.00;12.00;;;3.20;46.70;;;;;;5032132;28;46492;-62
2023/03/06 00:30:23;;;;;;;20.30;10.97;;;3.20;46.80;;;;;;5030588;28;46897;-62
2023/03/06 00:32:49;;;;;;;24.35;12.50;;;3.20;46.80;;;;;;5031115;28;46347;-62
2023/03/06 00:35:15;;;;;;;21.55;11.05;;;3.20;46.80;;;;;;5032580;28;46398;-62
2023/03/06 00:37:42;;;;;;;27.42;12.60;;;3.30;46.90;;;;;;5019434;28;46423;-61
2023/03/06 00:40:11;;;;;;;25.98;13.27;;;3.30;46.90;;;;;;5017785;28;46044;-62
2023/03/06 00:42:36;;;;;;;25.40;12.35;;;3.20;46.80;;;;;;5029996;28;48552;-61
2023/03/06 00:45:02;;;;;;;24.53;12.27;;;3.20;46.80;;;;;;5026588;28;46365;-62
2023/03/06 00:47:28;;;;;;;24.70;12.80;;;3.20;46.80;;;;;;5034314;28;46420;-61
2023/03/06 00:49:53;;;;;;;28.23;12.77;;;3.20;46.80;;;;;;5030526;28;46320;-62
2023/03/06 00:52:19;;;;;;;23.50;12.40;;;3.20;46.80;;;;;;5032295;28;46351;-62
2023/03/06 00:54:45;;;;;;;26.70;13.00;;;3.10;46.70;;;;;;5031319;28;46449;-62
2023/03/06 00:57:10;;;;;;;31.90;11.63;;;3.20;46.80;;;;;;5023594;28;46454;-62
2023/03/06 00:59:36;;;;;;;28.97;13.40;;;3.20;46.80;;;;;;5035330;28;45913;-63
2023/03/06 01:02:02;;;;;;;26.90;12.07;;;3.10;46.70;;;;;;5033925;28;45991;-61
2023/03/06 01:04:28;;;;;;;24.95;11.93;;;3.10;46.70;;;;;;5030245;28;46362;-62
2023/03/06 01:06:53;;;;;;;25.17;13.00;;;3.10;46.70;;;;;;5036234;28;46506;-62
2023/03/06 01:09:19;;;;;;;23.33;11.60;;;3.10;46.70;;;;;;5032854;28;46392;-62
2023/03/06 01:11:45;;;;;;;25.33;12.60;;;3.10;46.70;;;;;;5036196;28;46187;-62
2023/03/06 01:14:11;;;;;;;28.13;12.57;;;3.10;46.70;;;;;;5035980;28;46418;-61
2023/03/06 01:16:36;;;;;;;21.87;11.63;;;3.10;46.70;;;;;;5036896;28;46502;-61
2023/03/06 01:19:02;;;;;;;25.23;12.10;;;3.10;46.70;;;;;;5038446;28;46420;-61
2023/03/06 01:21:28;;;;;;;27.50;12.60;;;3.00;46.90;;;;;;5034175;28;46064;-61
2023/03/06 01:23:53;;;;;;;24.30;12.30;;;3.00;46.70;;;;;;5031381;28;46495;-61
2023/03/06 01:26:19;;;;;;;22.63;12.10;;;3.00;46.60;;;;;;5033868;28;46445;-62
2023/03/06 01:28:44;;;;;;;26.73;11.70;;;3.00;46.70;;;;;;5037387;28;46543;-62
2023/03/06 01:31:10;;;;;;;26.23;13.10;;;3.00;46.70;;;;;;5032219;28;46642;-63
2023/03/06 01:33:36;;;;;;;24.37;12.63;;;3.00;47.00;;;;;;5033989;28;46426;-61
2023/03/06 01:36:05;;;;;;;28.45;12.85;;;3.00;46.60;;;;;;5030935;28;46275;-62
2023/03/06 01:38:30;;;;;;;24.40;12.70;;;3.00;46.70;;;;;;5034117;28;46338;-62
2023/03/06 01:40:56;;;;;;;23.50;12.33;;;3.00;46.60;;;;;;5036118;28;46430;-61
2023/03/06 01:43:27;;;;;;;26.00;12.20;;;3.00;46.60;;;;;;5034988;28;46597;-63
2023/03/06 01:46:24;;;;;;;21.25;11.52;;;3.00;46.60;;;;;;5033982;28;46536;-63
2023/03/06 01:49:03;;;;;;;25.73;12.30;;;3.00;46.60;;;;;;5032892;28;46440;-62
2023/03/06 01:51:37;;;;;;;22.65;11.35;;;2.90;46.60;;;;;;5034520;28;46363;-62
2023/03/06 01:54:10;;;;;;;27.25;12.90;;;2.90;46.90;;;;;;5029716;28;46893;-62
2023/03/06 01:56:37;;;;;;;24.45;11.65;;;2.80;46.90;;;;;;5036684;28;46373;-61
2023/03/06 01:59:03;;;;;;;24.08;11.82;;;2.80;47.20;;;;;;5034947;28;46287;-61
2023/03/06 02:01:30;;;;;;;22.92;11.95;;;2.80;47.30;;;;;;5029742;28;46425;-61
2023/03/06 02:03:56;;;;;;;25.75;11.48;;;2.70;47.50;;;;;;5033828;28;46448;-61
2023/03/06 02:06:22;;;;;;;24.87;11.00;;;2.70;47.80;;;;;;5029881;28;46589;-61
2023/03/06 02:08:49;;;;;;;22.03;11.00;;;2.60;48.00;;;;;;5035376;28;46366;-62
2023/03/06 02:11:21;;;;;;;20.20;10.90;;;2.60;48.20;;;;;;5034197;28;46332;-63
2023/03/06 02:13:49;;;;;;;19.50;10.45;;;2.60;48.20;;;;;;5032237;28;46428;-62
2023/03/06 02:16:16;;;;;;;19.10;9.85;;;2.60;48.50;;;;;;5035091;28;46488;-63
2023/03/06 02:18:44;;;;;;;23.05;11.30;;;2.50;48.70;;;;;;5034453;28;46411;-61
2023/03/06 02:21:19;;;;;;;20.90;11.45;;;2.60;48.80;;;;;;5032759;28;46378;-62
2023/03/06 02:24:22;;;;;;;28.10;14.05;;;2.60;48.70;;;;;;5035106;28;46378;-62
2023/03/06 02:26:48;;;;;;;27.40;13.20;;;2.60;48.60;;;;;;5035741;28;46367;-63
2023/03/06 02:29:25;;;;;;;23.17;12.50;;;2.60;48.60;;;;;;5032577;28;46340;-63
2023/03/06 02:31:51;;;;;;;24.15;12.38;;;2.60;48.80;;;;;;5033895;28;46451;-63
2023/03/06 02:34:19;;;;;;;24.17;13.50;;;2.50;48.80;;;;;;5029141;28;46394;-63
2023/03/06 02:36:49;;;;;;;27.33;12.50;;;2.50;49.00;;;;;;5031223;28;46418;-62
2023/03/06 02:39:19;;;;;;;22.17;10.95;;;2.50;50.30;;;;;;5036197;28;46275;-64
2023/03/06 02:41:44;;;;;;;21.60;11.75;;;2.40;49.20;;;;;;5030988;28;46434;-63
2023/03/06 02:44:10;;;;;;;26.73;12.57;;;2.40;49.30;;;;;;5030250;28;46426;-62
2023/03/06 02:46:35;;;;;;;23.43;12.43;;;2.40;49.30;;;;;;5034030;28;46500;-62
2023/03/06 02:49:01;;;;;;;24.90;11.70;;;2.50;49.10;;;;;;5031215;28;46555;-62
2023/03/06 02:51:27;;;;;;;25.30;11.47;;;2.50;49.20;;;;;;5032662;28;47128;-62
2023/03/06 02:53:52;;;;;;;24.10;12.73;;;2.50;49.20;;;;;;5032855;28;46534;-62
2023/03/06 02:56:18;;;;;;;25.00;12.30;;;2.50;49.10;;;;;;5013055;28;46442;-63
2023/03/06 02:58:44;;;;;;;24.60;12.07;;;2.50;49.10;;;;;;5032236;28;46366;-63
2023/03/06 03:01:10;;;;;;;22.30;11.43;;;2.60;49.10;;;;;;5032117;28;46425;-62
2023/03/06 03:03:36;;;;;;;24.10;12.00;;;2.60;49.00;;;;;;5020489;28;45775;-61
2023/03/06 03:06:05;;;;;;;22.92;11.50;;;2.60;49.00;;;;;;5032408;28;46347;-61
2023/03/06 03:08:32;;;;;;;24.75;10.95;;;2.60;49.10;;;;;;5034271;28;46467;-62
2023/03/06 03:10:59;;;;;;;20.63;10.68;;;2.60;49.20;;;;;;5033748;28;48051;-63
2023/03/06 03:13:24;;;;;;;24.80;11.98;;;2.70;49.40;;;;;;5033850;28;46357;-62
2023/03/06 03:16:09;;;;;;;20.90;10.77;;;2.60;49.40;;;;;;5030602;28;46109;-62
2023/03/06 03:18:35;;;;;;;23.25;11.50;;;2.60;49.40;;;;;;5033262;28;46868;-61
2023/03/06 03:21:01;;;;;;;26.30;12.60;;;2.80;50.70;;;;;;5029579;28;47561;-62
2023/03/06 03:23:26;;;;;;;23.07;12.33;;;2.70;49.40;;;;;;5030668;28;46433;-61
2023/03/06 03:25:52;;;;;;;28.70;12.10;;;2.60;49.30;;;;;;5012536;28;46384;-60
2023/03/06 03:28:18;;;;;;;20.90;9.97;;;2.70;49.40;;;;;;5034321;28;46414;-62
2023/03/06 03:30:44;;;;;;;22.53;10.70;;;2.70;49.40;;;;;;5030652;28;47090;-63
2023/03/06 03:33:10;;;;;;;21.40;10.30;;;2.70;49.50;;;;;;5025765;28;46368;-61
2023/03/06 03:35:36;;;;;;;46.10;20.80;;;2.60;49.60;;;;;;5028378;28;46597;-62
2023/03/06 03:38:01;;;;;;;25.93;12.50;;;2.80;51.00;;;;;;5028664;28;46454;-62
2023/03/06 03:40:27;;;;;;;26.67;12.53;;;2.70;49.40;;;;;;5030188;28;46228;-61
2023/03/06 03:42:53;;;;;;;27.10;12.95;;;2.70;49.20;;;;;;5034867;28;46383;-61
2023/03/06 03:45:19;;;;;;;28.13;12.07;;;2.70;49.10;;;;;;5031744;28;46527;-61
2023/03/06 03:47:44;;;;;;;28.10;14.23;;;2.80;49.20;;;;;;5031781;28;46356;-61
2023/03/06 03:50:10;;;;;;;39.87;16.73;;;2.80;49.10;;;;;;5031027;28;47121;-62
2023/03/06 03:52:36;;;;;;;26.08;12.65;;;2.80;49.00;;;;;;5032376;28;45780;-61
2023/03/06 03:55:03;;;;;;;21.43;11.87;;;2.80;48.90;;;;;;5033251;28;46750;-62
2023/03/06 03:57:29;;;;;;;25.30;11.95;;;2.80;48.90;;;;;;5033344;28;45851;-62
2023/03/06 03:59:55;;;;;;;23.73;11.82;;;2.70;48.90;;;;;;5032861;28;46993;-61
2023/03/06 04:02:21;;;;;;;20.42;11.77;;;2.70;49.00;;;;;;5029787;28;46355;-62
2023/03/06 04:04:47;;;;;;;36.30;14.75;;;2.70;49.20;;;;;;5029761;28;46473;-60
2023/03/06 04:07:13;;;;;;;29.50;12.30;;;2.70;49.40;;;;;;5030893;28;46471;-62
2023/03/06 04:09:38;;;;;;;33.43;15.37;;;2.70;49.40;;;;;;5020932;28;46481;-63
2023/03/06 04:12:05;;;;;;;41.27;19.97;;;2.60;49.40;;;;;;5030513;28;45828;-62
2023/03/06 04:14:30;;;;;;;43.58;19.15;;;2.70;49.70;;;;;;5030827;28;46303;-62
2023/03/06 04:16:56;;;;;;;46.13;20.87;;;2.70;49.50;;;;;;5034721;28;46366;-63
2023/03/06 04:19:21;;;;;;;37.70;18.03;;;2.70;49.50;;;;;;5030794;28;46387;-62
2023/03/06 04:21:47;;;;;;;33.53;16.53;;;2.70;49.40;;;;;;5035160;28;46310;-63
2023/03/06 04:24:13;;;;;;;31.23;13.20;;;2.70;49.50;;;;;;5028033;28;46482;-62
2023/03/06 04:26:38;;;;;;;24.17;13.10;;;2.60;49.60;;;;;;5034679;28;46387;-62
2023/03/06 04:29:04;;;;;;;33.37;15.47;;;2.60;49.80;;;;;;5030307;28;46450;-61
2023/03/06 04:31:29;;;;;;;35.00;15.60;;;2.60;49.90;;;;;;5032157;28;45754;-62
2023/03/06 04:33:55;;;;;;;43.53;21.73;;;2.60;50.00;;;;;;5032297;28;46441;-63
2023/03/06 04:36:28;;;;;;;65.17;30.03;;;2.70;50.00;;;;;;5033478;28;46458;-62
2023/03/06 04:38:54;;;;;;;57.25;27.08;;;2.70;50.00;;;;;;5029466;28;47048;-60
2023/03/06 04:41:20;;;;;;;54.13;25.27;;;2.80;50.00;;;;;;5026207;28;46385;-60
2023/03/06 04:43:45;;;;;;;40.70;19.80;;;2.80;49.70;;;;;;5024165;28;46449;-61
2023/03/06 04:46:11;;;;;;;33.13;16.23;;;2.70;50.80;;;;;;5031062;28;46386;-61
2023/03/06 04:48:36;;;;;;;27.47;13.00;;;2.70;49.60;;;;;;5033158;28;46000;-62
2023/03/06 04:51:02;;;;;;;33.77;14.77;;;2.70;49.50;;;;;;5029407;28;46522;-62
2023/03/06 04:53:28;;;;;;;35.53;15.57;;;2.60;49.50;;;;;;5030783;28;46374;-62
2023/03/06 04:55:53;;;;;;;33.90;14.70;;;2.60;49.60;;;;;;5030767;28;46035;-61
2023/03/06 04:58:19;;;;;;;37.20;14.70;;;2.70;49.50;;;;;;5025737;28;47156;-62
2023/03/06 05:00:45;;;;;;;33.37;16.77;;;2.70;49.30;;;;;;5030189;28;46382;-63
2023/03/06 05:03:12;;;;;;;41.83;20.70;;;2.70;49.30;;;;;;5031506;28;46498;-63
2023/03/06 05:05:38;;;;;;;60.75;27.60;;;2.60;49.40;;;;;;5028318;28;45920;-61
2023/03/06 05:08:04;;;;;;;40.17;19.03;;;2.60;49.40;;;;;;5032764;28;46792;-62
2023/03/06 05:10:29;;;;;;;33.80;16.87;;;2.60;49.70;;;;;;5032805;28;46470;-63
2023/03/06 05:12:55;;;;;;;40.47;19.70;;;2.60;49.90;;;;;;5033513;28;45761;-62
2023/03/06 05:15:21;;;;;;;32.17;15.80;;;2.60;49.70;;;;;;5025884;28;46490;-61
2023/03/06 05:17:46;;;;;;;47.53;19.87;;;2.60;49.60;;;;;;5028427;28;46502;-63
2023/03/06 05:20:13;;;;;;;36.27;18.00;;;2.60;49.70;;;;;;5028678;28;46303;-60
2023/03/06 05:22:39;;;;;;;31.10;16.48;;;2.60;49.70;;;;;;5029455;28;46395;-62
2023/03/06 05:25:05;;;;;;;35.67;16.67;;;2.70;49.70;;;;;;5029448;28;46278;-60
2023/03/06 05:27:31;;;;;;;36.30;16.80;;;2.60;49.50;;;;;;5030092;28;46336;-61
2023/03/06 05:29:57;;;;;;;42.00;20.48;;;2.60;49.60;;;;;;5029123;28;46439;-62
2023/03/06 05:32:23;;;;;;;49.80;22.37;;;2.60;49.60;;;;;;5029587;28;46539;-62
2023/03/06 05:34:49;;;;;;;58.97;26.70;;;2.60;49.60;;;;;;5030176;28;46406;-62
2023/03/06 05:37:14;;;;;;;57.03;28.20;;;2.70;49.80;;;;;;5030475;28;46577;-62
2023/03/06 05:39:40;;;;;;;56.37;27.20;;;2.60;49.80;;;;;;5030136;28;46629;-61
2023/03/06 05:42:06;;;;;;;62.67;29.80;;;2.60;50.00;;;;;;5034198;28;46415;-62
2023/03/06 05:44:34;;;;;;;80.50;36.80;;;2.60;50.10;;;;;;5035923;28;46404;-62
2023/03/06 05:46:59;;;;;;;76.75;33.80;;;2.60;50.00;;;;;;5032965;28;46409;-60
2023/03/06 05:49:25;;;;;;;63.57;26.60;;;2.60;50.10;;;;;;5033481;28;46566;-61
2023/03/06 05:51:51;;;;;;;45.90;21.30;;;2.60;50.10;;;;;;5035184;28;46434;-62
2023/03/06 05:54:16;;;;;;;40.17;17.70;;;2.70;49.90;;;;;;5030863;28;46451;-62
2023/03/06 05:56:42;;;;;;;31.30;16.10;;;2.70;49.70;;;;;;5033214;28;46426;-61
2023/03/06 05:59:08;;;;;;;31.37;14.97;;;2.70;49.80;;;;;;5035705;28;46367;-61
2023/03/06 06:01:33;;;;;;;33.73;14.60;;;2.60;49.70;;;;;;5027228;28;45841;-62
2023/03/06 06:03:59;;;;;;;31.50;14.53;;;2.60;49.90;;;;;;5033670;28;46163;-62
2023/03/06 06:06:24;;;;;;;27.80;15.43;;;2.60;50.10;;;;;;5033866;28;47246;-61
2023/03/06 06:08:50;;;;;;;32.63;17.07;;;2.60;50.10;;;;;;5028926;28;46073;-61
2023/03/06 06:11:17;;;;;;;29.20;14.00;;;2.60;50.10;;;;;;5032599;28;45810;-61
2023/03/06 06:13:43;;;;;;;32.35;14.55;;;2.60;50.00;;;;;;5030895;28;46419;-61
2023/03/06 06:16:11;;;;;;;24.07;13.80;;;2.70;50.00;;;;;;5031898;28;46445;-60
2023/03/06 06:18:37;;;;;;;29.58;14.98;;;2.70;49.70;;;;;;5032144;28;46434;-60
2023/03/06 06:21:07;;;;;;;29.63;15.00;;;2.80;49.70;;;;;;5030983;28;46286;-60
2023/03/06 06:23:33;;;;;;;30.67;14.95;;;2.80;50.70;;;;;;5035378;28;46395;-61
2023/03/06 06:26:03;;;;;;;33.20;15.20;;;2.80;49.40;;;;;;5029657;28;46481;-61
2023/03/06 06:28:30;;;;;;;24.27;11.95;;;2.90;49.40;;;;;;5035785;28;46125;-60
2023/03/06 06:30:56;;;;;;;34.92;15.00;;;2.90;49.40;;;;;;5033366;28;46378;-60
2023/03/06 06:33:22;;;;;;;32.13;13.50;;;2.90;49.30;;;;;;5029283;28;45994;-61
2023/03/06 06:35:49;;;;;;;29.40;14.40;;;2.90;49.20;;;;;;5033914;28;46426;-61
2023/03/06 06:38:15;;;;;;;31.08;13.30;;;3.00;49.30;;;;;;5033126;28;46665;-60
2023/03/06 06:40:41;;;;;;;28.60;12.55;;;3.10;50.30;;;;;;5033357;28;46229;-61
2023/03/06 06:43:06;;;;;;;38.47;14.63;;;3.30;49.20;;;;;;5031478;28;46573;-62
2023/03/06 06:45:32;;;;;;;34.47;15.47;;;3.10;48.90;;;;;;5028145;28;47084;-59
2023/03/06 06:47:57;;;;;;;26.30;14.90;;;3.20;48.80;;;;;;5031606;28;46481;-59
2023/03/06 06:50:23;;;;;;;34.50;15.90;;;3.20;48.80;;;;;;5033046;28;46402;-61
2023/03/06 06:52:49;;;;;;;35.57;15.60;;;3.20;48.70;;;;;;5032344;28;46309;-61
2023/03/06 06:55:15;;;;;;;33.13;14.43;;;3.30;48.80;;;;;;5034707;28;45921;-61
2023/03/06 06:57:41;;;;;;;30.77;14.10;;;3.30;48.70;;;;;;5034715;28;46759;-61
2023/03/06 07:00:07;;;;;;;29.25;14.75;;;3.40;48.70;;;;;;5034609;28;46559;-61
2023/03/06 07:02:33;;;;;;;29.02;13.40;;;3.40;48.50;;;;;;5033873;28;46748;-60
2023/03/06 07:04:59;;;;;;;28.10;13.73;;;3.50;48.50;;;;;;5034207;28;46461;-60
2023/03/06 07:07:24;;;;;;;26.27;13.33;;;3.50;48.50;;;;;;5036989;28;46420;-61
2023/03/06 07:09:50;;;;;;;25.87;13.40;;;3.60;48.50;;;;;;5029929;28;46415;-60
2023/03/06 07:12:15;;;;;;;28.80;13.83;;;3.60;48.30;;;;;;5030314;28;46661;-60
2023/03/06 07:14:41;;;;;;;28.13;13.13;;;3.70;48.30;;;;;;5031517;28;47112;-61
2023/03/06 07:17:08;;;;;;;26.67;13.73;;;3.70;48.10;;;;;;5032937;28;46370;-60
2023/03/06 07:19:34;;;;;;;29.60;14.18;;;3.80;47.90;;;;;;5029745;28;46447;-61
2023/03/06 07:22:00;;;;;;;27.23;13.10;;;3.80;47.60;;;;;;5030370;28;46124;-62
2023/03/06 07:24:26;;;;;;;31.07;13.93;;;3.90;47.80;;;;;;5029505;28;46750;-62
2023/03/06 07:26:52;;;;;;;29.08;14.70;;;3.90;47.60;;;;;;5032235;28;46290;-60
2023/03/06 07:29:18;;;;;;;34.53;13.97;;;3.90;47.50;;;;;;5032127;28;46217;-59
2023/03/06 07:31:44;;;;;;;26.40;12.53;;;4.00;47.50;;;;;;5030448;28;45898;-59
2023/03/06 07:34:13;;;;;;;27.93;13.93;;;4.00;47.50;;;;;;5033617;28;47434;-59
2023/03/06 07:36:39;;;;;;;34.60;17.08;;;4.10;47.70;;;;;;5028477;28;46710;-62
2023/03/06 07:39:06;;;;;;;31.70;14.37;;;4.20;47.70;;;;;;5030866;28;46470;-60
2023/03/06 07:41:32;;;;;;;30.33;13.47;;;4.20;47.70;;;;;;5036357;28;45997;-62
2023/03/06 07:43:57;;;;;;;28.00;13.30;;;4.20;48.80;;;;;;5029778;28;47232;-62
2023/03/06 07:46:23;;;;;;;35.20;14.10;;;4.30;47.70;;;;;;5028950;28;46485;-63
2023/03/06 07:48:49;;;;;;;32.00;15.57;;;4.40;47.80;;;;;;5030983;28;46415;-62
2023/03/06 07:51:17;;;;;;;27.37;13.53;;;4.50;47.90;;;;;;5028825;28;46600;-62
2023/03/06 07:53:43;;;;;;;28.13;14.80;;;4.60;48.00;;;;;;5018222;28;47263;-63
2023/03/06 07:56:09;;;;;;;27.85;13.88;;;4.70;48.10;;;;;;5014641;28;46570;-63
2023/03/06 07:58:37;;;;;;;32.60;14.47;;;4.80;49.40;;;;;;5032607;28;46399;-61
2023/03/06 08:01:08;;;;;;;26.53;13.23;;;4.90;48.30;;;;;;5031102;28;46442;-62
2023/03/06 08:03:34;;;;;;;30.23;15.17;;;5.10;48.40;;;;;;5030044;28;48369;-61
2023/03/06 08:06:13;;;;;;;26.83;14.47;;;5.20;48.50;;;;;;5029952;28;46509;-62
2023/03/06 08:08:41;;;;;;;28.30;13.87;;;5.40;48.40;;;;;;5030692;28;46505;-62
2023/03/06 08:11:08;;;;;;;25.80;13.20;;;5.50;48.00;;;;;;5032080;28;46372;-62
2023/03/06 08:13:34;;;;;;;31.00;12.83;;;5.60;47.80;;;;;;5031699;28;47233;-63
2023/03/06 08:16:00;;;;;;;34.53;15.17;;;5.70;47.70;;;;;;5030574;28;46553;-62
2023/03/06 08:18:26;;;;;;;24.17;12.53;;;5.70;47.80;;;;;;5029807;28;46414;-60
2023/03/06 08:21:02;;;;;;;25.80;13.13;;;5.70;48.00;;;;;;5029837;28;46460;-61
2023/03/06 08:23:28;;;;;;;27.70;12.10;;;5.70;47.90;;;;;;5029068;28;47014;-61
2023/03/06 08:25:58;;;;;;;27.50;13.33;;;5.70;48.00;;;;;;5030005;28;45929;-61
2023/03/06 08:28:24;;;;;;;27.13;13.50;;;5.80;47.90;;;;;;5029139;28;46288;-61
2023/03/06 08:30:50;;;;;;;32.37;16.73;;;5.80;47.80;;;;;;5031871;28;46580;-60
2023/03/06 08:33:16;;;;;;;26.57;13.47;;;5.90;47.70;;;;;;5032257;28;45967;-60
2023/03/06 08:35:41;;;;;;;24.07;13.30;;;6.00;47.20;;;;;;5032432;28;46473;-60
2023/03/06 08:38:07;;;;;;;24.10;12.57;;;6.20;46.80;;;;;;5030836;28;46430;-61
2023/03/06 08:40:32;;;;;;;25.60;12.77;;;6.20;46.50;;;;;;5029504;28;46433;-60
2023/03/06 08:42:58;;;;;;;25.03;13.63;;;6.20;46.40;;;;;;5033973;28;46379;-60
2023/03/06 08:45:24;;;;;;;27.97;14.60;;;6.30;46.50;;;;;;5030835;28;46625;-61
2023/03/06 08:47:49;;;;;;;23.40;13.43;;;6.40;46.10;;;;;;5029376;28;46406;-61
2023/03/06 08:50:15;;;;;;;27.27;11.63;;;6.50;45.70;;;;;;5030463;28;46269;-61
2023/03/06 08:52:40;;;;;;;23.93;11.90;;;6.50;45.30;;;;;;5030093;28;46383;-60
2023/03/06 08:55:06;;;;;;;23.70;12.43;;;6.50;45.40;;;;;;5037076;28;45851;-61
2023/03/06 08:57:32;;;;;;;29.00;12.80;;;6.50;45.60;;;;;;5033162;28;46495;-62
2023/03/06 08:59:58;;;;;;;24.90;11.63;;;6.40;45.40;;;;;;5029955;28;46422;-61
2023/03/06 09:02:23;;;;;;;23.80;13.10;;;6.10;45.80;;;;;;5027127;28;46881;-61
2023/03/06 09:04:49;;;;;;;21.00;11.70;;;6.00;45.70;;;;;;5026425;28;46489;-61
2023/03/06 09:07:14;;;;;;;21.50;12.00;;;5.90;45.90;;;;;;5030149;28;46256;-62
2023/03/06 09:09:40;;;;;;;26.03;13.27;;;5.80;44.80;;;;;;5025281;28;46363;-62
2023/03/06 09:12:06;;;;;;;31.73;13.03;;;5.30;45.10;;;;;;5027831;28;46487;-61
2023/03/06 09:14:32;;;;;;;24.73;11.60;;;5.20;45.70;;;;;;5029113;28;46425;-61
2023/03/06 09:16:57;;;;;;;29.20;12.03;;;5.10;45.20;;;;;;5030327;28;45910;-60
2023/03/06 09:19:23;;;;;;;25.90;12.50;;;5.20;45.40;;;;;;5034963;28;46521;-61
2023/03/06 09:21:48;;;;;;;23.50;12.17;;;5.50;45.00;;;;;;5036949;28;46419;-61
2023/03/06 09:24:14;;;;;;;24.20;12.67;;;5.60;44.30;;;;;;5032458;28;46767;-60
2023/03/06 09:26:40;;;;;;;21.77;11.90;;;5.80;43.90;;;;;;5034048;28;46529;-62
2023/03/06 09:29:06;;;;;;;21.83;11.23;;;5.80;43.00;;;;;;5029498;28;46588;-60
2023/03/06 09:31:32;;;;;;;22.40;12.20;;;5.90;43.30;;;;;;5032588;28;46398;-61
2023/03/06 09:33:57;;;;;;;23.13;10.27;;;6.10;43.30;;;;;;5030701;28;46462;-62
2023/03/06 09:36:23;;;;;;;22.23;11.77;;;6.00;42.20;;;;;;5028614;28;46375;-60
2023/03/06 09:38:49;;;;;;;20.43;11.33;;;5.80;42.70;;;;;;5034559;28;46870;-62
2023/03/06 09:41:35;;;;;;;25.67;11.47;;;5.90;42.10;;;;;;5032456;28;47110;-62
2023/03/06 09:44:13;;;;;;;30.83;11.27;;;5.60;41.90;;;;;;5035943;28;46592;-62
2023/03/06 09:47:09;;;;;;;19.60;10.40;;;5.40;42.00;;;;;;5034475;28;46633;-61
2023/03/06 09:49:43;;;;;;;27.60;12.20;;;5.10;41.70;;;;;;5029930;28;46272;-60
2023/03/06 09:52:27;;;;;;;21.00;11.30;;;4.80;41.90;;;;;;5029544;28;46550;-60
2023/03/06 09:54:57;;;;;;;24.13;11.13;;;4.70;41.80;;;;;;5033235;28;45835;-61
2023/03/06 09:57:30;;;;;;;23.77;12.33;;;4.60;41.80;;;;;;5030911;28;46462;-62
2023/03/06 10:00:00;;;;;;;24.73;12.23;;;4.80;41.90;;;;;;5030737;28;46753;-59
2023/03/06 10:02:31;;;;;;;22.23;10.70;;;5.00;41.60;;;;;;5029663;28;46425;-62
2023/03/06 10:05:02;;;;;;;23.40;11.50;;;5.00;41.30;;;;;;5027908;28;46315;-59
2023/03/06 10:07:59;;;;;;;18.90;10.90;;;5.10;41.30;;;;;;5031742;28;46344;-61
2023/03/06 10:10:34;;;;;;;26.87;12.30;;;5.20;41.20;;;;;;5032263;28;46386;-61
2023/03/06 10:13:19;;;;;;;23.27;10.20;;;5.40;40.90;;;;;;5032454;28;46246;-59
2023/03/06 10:15:46;;;;;;;21.33;11.23;;;5.30;40.60;;;;;;5032893;28;46452;-61
2023/03/06 10:18:12;;;;;;;23.73;11.57;;;5.30;41.20;;;;;;5036345;28;46422;-61
2023/03/06 10:21:04;;;;;;;22.07;10.13;;;5.30;41.30;;;;;;5031202;28;46539;-61
2023/03/06 10:24:11;;;;;;;29.30;10.50;;;5.30;41.20;;;;;;5030669;28;46874;-60
2023/03/06 10:26:47;;;;;;;21.07;11.23;;;5.40;41.40;;;;;;5026078;28;45909;-63
2023/03/06 10:29:13;;;;;;;22.73;9.77;;;5.40;41.60;;;;;;5016051;28;46413;-61
2023/03/06 10:31:43;;;;;;;21.77;11.23;;;5.30;41.30;;;;;;5030636;28;46482;-62
2023/03/06 10:34:15;;;;;;;22.87;10.50;;;5.20;41.50;;;;;;5029993;28;46360;-60
2023/03/06 10:36:41;;;;;;;22.37;10.60;;;5.20;41.50;;;;;;5032219;28;46457;-60
2023/03/06 10:39:19;;;;;;;24.97;11.90;;;5.20;41.30;;;;;;5030258;28;46524;-62
2023/03/06 10:41:45;;;;;;;21.43;11.67;;;5.30;41.50;;;;;;5031857;28;45964;-61
2023/03/06 10:44:10;;;;;;;20.00;11.20;;;5.40;41.40;;;;;;5031862;28;46860;-60
2023/03/06 10:46:38;;;;;;;25.00;12.53;;;5.50;41.10;;;;;;5029386;28;46463;-63
2023/03/06 10:49:27;;;;;;;22.00;11.67;;;5.50;41.00;;;;;;5034832;28;45989;-63
2023/03/06 10:51:58;;;;;;;23.87;11.47;;;5.50;41.10;;;;;;5023381;28;46533;-62
2023/03/06 10:54:25;;;;;;;21.50;10.53;;;5.50;41.00;;;;;;5034682;28;47058;-60
2023/03/06 10:56:50;;;;;;;25.60;11.97;;;5.50;40.90;;;;;;5032193;28;46485;-60
2023/03/06 10:59:24;;;;;;;22.23;11.50;;;5.30;40.90;;;;;;5034094;28;46576;-61
2023/03/06 11:02:01;;;;;;;25.20;10.80;;;5.30;40.90;;;;;;5034830;28;46504;-62
2023/03/06 11:04:28;;;;;;;24.13;10.93;;;5.50;41.40;;;;;;5029018;28;46537;-63
2023/03/06 11:07:17;;;;;;;22.70;10.90;;;5.50;41.10;;;;;;5031051;28;46480;-62
2023/03/06 11:09:57;;;;;;;24.73;11.20;;;5.60;41.10;;;;;;5031516;28;46331;-59
2023/03/06 11:12:38;;;;;;;20.50;10.37;;;5.50;40.80;;;;;;5033059;28;46356;-59
2023/03/06 11:15:20;;;;;;;25.07;10.33;;;5.40;40.50;;;;;;5032028;28;46377;-61
2023/03/06 11:17:59;;;;;;;21.13;10.73;;;5.40;40.70;;;;;;5030389;28;46378;-62
2023/03/06 11:20:31;;;;;;;20.40;10.03;;;5.30;40.30;;;;;;5029685;28;46496;-62
2023/03/06 11:23:33;;;;;;;22.93;10.37;;;5.50;40.50;;;;;;5030645;28;46414;-61
2023/03/06 11:26:19;;;;;;;24.80;11.17;;;5.40;40.00;;;;;;5032902;28;47088;-62
2023/03/06 11:29:03;;;;;;;17.20;9.40;;;5.40;39.90;;;;;;5030162;28;46300;-60
2023/03/06 11:31:46;;;;;;;25.77;10.70;;;5.30;39.70;;;;;;5030223;28;46455;-59
2023/03/06 11:34:16;;;;;;;19.70;10.03;;;5.50;39.80;;;;;;5028086;28;45873;-60
2023/03/06 11:37:07;;;;;;;19.40;9.37;;;5.70;39.40;;;;;;5029916;28;46196;-61
2023/03/06 11:39:53;;;;;;;22.83;11.60;;;5.50;38.50;;;;;;5030610;28;46478;-61
2023/03/06 11:42:41;;;;;;;20.40;10.83;;;5.30;38.70;;;;;;5030891;28;46452;-60
2023/03/06 11:45:27;;;;;;;23.23;10.67;;;5.10;38.90;;;;;;5029427;28;46445;-60
2023/03/06 11:48:08;;;;;;;24.67;10.13;;;4.90;38.80;;;;;;5029019;28;47226;-61
2023/03/06 11:50:44;;;;;;;19.93;10.00;;;4.80;39.00;;;;;;5031292;28;46332;-62
2023/03/06 11:53:21;;;;;;;24.57;11.00;;;4.80;39.60;;;;;;5028392;28;46458;-61
2023/03/06 11:55:59;;;;;;;18.53;10.20;;;4.90;39.20;;;;;;5029175;28;46362;-61
2023/03/06 11:58:46;;;;;;;20.33;9.73;;;5.00;39.30;;;;;;5027295;28;46219;-60
2023/03/06 12:01:17;;;;;;;24.40;10.27;;;5.20;39.00;;;;;;5033680;28;46447;-61
2023/03/06 12:03:52;;;;;;;22.20;10.33;;;5.40;38.60;;;;;;5027683;28;46109;-61
2023/03/06 12:06:41;;;;;;;17.90;9.23;;;5.50;38.30;;;;;;5030669;28;46328;-62
2023/03/06 12:09:13;;;;;;;27.77;11.53;;;5.60;38.50;;;;;;5032103;28;46545;-63
2023/03/06 12:12:14;;;;;;;17.67;9.20;;;5.50;37.90;;;;;;5032097;28;46583;-63
2023/03/06 12:14:43;;;;;;;17.57;10.20;;;5.50;37.70;;;;;;5016037;28;45777;-61
2023/03/06 12:17:30;;;;;;;21.63;9.83;;;5.60;37.70;;;;;;5027828;28;46690;-62
2023/03/06 12:20:17;;;;;;;19.63;10.00;;;6.00;37.50;;;;;;5030824;28;46429;-61
2023/03/06 12:22:50;;;;;;;20.33;10.80;;;6.30;36.80;;;;;;5035101;28;45792;-62
2023/03/06 12:25:27;;;;;;;18.00;9.57;;;6.40;36.40;;;;;;5028884;28;45845;-60
2023/03/06 12:28:11;;;;;;;19.70;10.43;;;6.30;36.20;;;;;;5031719;28;46494;-62
2023/03/06 12:31:06;;;;;;;19.90;9.87;;;6.30;36.20;;;;;;5030092;28;46476;-60
2023/03/06 12:33:39;;;;;;;17.10;8.70;;;6.20;36.10;;;;;;5013590;28;46685;-60
2023/03/06 12:36:23;;;;;;;17.50;8.87;;;6.20;36.10;;;;;;5030231;28;46407;-61
2023/03/06 12:39:01;;;;;;;22.03;10.23;;;6.60;36.50;;;;;;5026708;28;45843;-61
2023/03/06 12:41:38;;;;;;;20.17;8.00;;;6.80;35.50;;;;;;5029116;28;47018;-61
2023/03/06 12:44:34;;;;;;;28.60;10.53;;;6.70;34.00;;;;;;5032651;28;46465;-58
2023/03/06 12:47:13;;;;;;;15.43;7.50;;;6.60;34.60;;;;;;5031369;28;46416;-59
2023/03/06 12:49:44;;;;;;;17.40;9.00;;;6.40;34.30;;;;;;5017732;28;46402;-60